Time;durP1;ratioP1;P1;durP2;ratioP2;P2;SDS_P1;SDS_P2;PMS_P1;PMS_P2;Temp;Humidity;BMP_temperature;BMP_pressure;BME280_temperature;BME280_humidity;BME280_pressure;Samples;Min_cycle;Max_cycle;Signal;HPM_P1;HPM_P2
2021/07/04 00:01:12;;;;;;;28.25;16.27;;;;;;;16.03;92.92;99045.34;5033343;28;20083;-62
2021/07/04 00:03:38;;;;;;;27.95;16.80;;;;;;;16.14;91.98;99041.47;5034303;28;20028;-62
2021/07/04 00:06:04;;;;;;;33.55;16.98;;;;;;;16.20;91.71;99038.72;5033640;28;20096;-62
2021/07/04 00:08:29;;;;;;;26.25;15.60;;;;;;;16.27;91.75;99039.19;5034105;28;20079;-62
2021/07/04 00:11:02;;;;;;;26.25;15.77;;;;;;;16.30;91.97;99042.16;5033605;28;20435;-62
2021/07/04 00:13:28;;;;;;;28.25;16.20;;;;;;;16.28;91.91;99040.81;5032691;28;20123;-62
2021/07/04 00:15:54;;;;;;;34.58;17.60;;;;;;;16.20;91.63;99039.53;5033623;28;20036;-62
2021/07/04 00:18:24;;;;;;;34.70;17.15;;;;;;;16.09;92.77;99038.00;5033840;28;20034;-62
2021/07/04 00:20:50;;;;;;;24.92;16.23;;;;;;;16.15;91.77;99031.47;5033591;28;20044;-64
2021/07/04 00:23:18;;;;;;;23.15;15.02;;;;;;;16.20;90.48;99033.31;5032680;28;20018;-62
2021/07/04 00:25:43;;;;;;;30.63;16.48;;;;;;;16.24;91.28;99029.75;5033746;28;20045;-62
2021/07/04 00:28:09;;;;;;;32.00;16.60;;;;;;;16.26;91.38;99024.88;5033997;28;20109;-62
2021/07/04 00:30:34;;;;;;;26.20;16.75;;;;;;;16.30;90.78;99022.38;5033424;28;20041;-62
2021/07/04 00:33:00;;;;;;;22.95;15.93;;;;;;;16.30;90.86;99019.69;5033886;28;20071;-62
2021/07/04 00:35:25;;;;;;;31.42;16.75;;;;;;;16.33;90.07;99019.94;5033267;28;20025;-62
2021/07/04 00:37:51;;;;;;;24.65;15.30;;;;;;;16.35;90.26;99030.47;5033330;28;20090;-62
2021/07/04 00:40:17;;;;;;;22.83;14.82;;;;;;;16.40;90.38;99025.03;5033025;28;20032;-62
2021/07/04 00:42:42;;;;;;;27.70;16.50;;;;;;;16.39;91.58;99028.81;5032867;28;20541;-62
2021/07/04 00:45:10;;;;;;;27.00;14.27;;;;;;;16.32;90.36;99014.81;5033192;28;20537;-62
2021/07/04 00:47:35;;;;;;;28.38;15.82;;;;;;;16.25;91.80;99023.28;5033491;28;20017;-62
2021/07/04 00:50:00;;;;;;;29.23;14.95;;;;;;;16.25;92.00;99019.72;5015346;28;20132;-62
2021/07/04 00:52:26;;;;;;;31.38;16.17;;;;;;;16.22;91.78;99026.50;5033176;28;20048;-62
2021/07/04 00:54:51;;;;;;;31.15;15.48;;;;;;;16.17;91.34;99019.28;5032317;28;20029;-62
2021/07/04 00:57:17;;;;;;;36.20;16.58;;;;;;;16.21;90.76;99016.00;5031489;28;20450;-61
2021/07/04 00:59:42;;;;;;;35.72;15.50;;;;;;;16.17;91.03;99022.00;5033238;28;20055;-61
2021/07/04 01:02:08;;;;;;;34.40;15.80;;;;;;;16.06;91.37;99020.44;5031227;28;20050;-61
2021/07/04 01:04:33;;;;;;;28.98;15.02;;;;;;;15.83;92.28;99018.50;5033179;28;20037;-62
2021/07/04 01:06:58;;;;;;;37.05;17.02;;;;;;;15.85;92.70;99013.59;5032653;28;20033;-63
2021/07/04 01:09:24;;;;;;;35.22;17.65;;;;;;;15.88;92.74;99011.13;5031759;28;20025;-61
2021/07/04 01:11:49;;;;;;;37.28;17.95;;;;;;;15.96;92.42;99017.84;5031311;28;20487;-61
2021/07/04 01:14:16;;;;;;;33.30;18.13;;;;;;;15.99;91.95;99014.56;5032448;28;20022;-60
2021/07/04 01:16:41;;;;;;;36.97;16.48;;;;;;;16.06;91.14;99009.63;5031345;28;20595;-61
2021/07/04 01:19:07;;;;;;;30.48;16.38;;;;;;;16.13;91.25;99012.81;5031653;28;20034;-61
2021/07/04 01:21:33;;;;;;;23.45;14.63;;;;;;;16.19;91.59;99005.47;5032471;28;20056;-61
2021/07/04 01:23:58;;;;;;;27.85;16.23;;;;;;;16.15;91.89;99012.56;5033122;28;20048;-61
2021/07/04 01:26:24;;;;;;;27.55;14.68;;;;;;;16.20;91.77;99006.25;5031329;28;20607;-61
2021/07/04 01:28:49;;;;;;;24.70;16.02;;;;;;;16.19;90.87;99008.16;5032855;28;20053;-61
2021/07/04 01:31:15;;;;;;;25.55;15.07;;;;;;;16.06;91.59;99009.63;5031258;28;20495;-61
2021/07/04 01:33:40;;;;;;;35.92;15.90;;;;;;;16.10;91.58;99004.47;5032739;28;20395;-62
2021/07/04 01:36:06;;;;;;;29.23;14.60;;;;;;;16.16;91.17;99003.34;5032241;28;20044;-61
2021/07/04 01:38:31;;;;;;;33.65;15.15;;;;;;;16.18;90.78;98995.75;5031783;28;20099;-62
2021/07/04 01:40:57;;;;;;;27.02;14.30;;;;;;;16.11;90.59;98997.97;5032356;28;20029;-62
2021/07/04 01:43:22;;;;;;;35.17;15.20;;;;;;;16.06;91.23;99000.72;5031612;28;20028;-62
2021/07/04 01:45:48;;;;;;;28.50;14.80;;;;;;;15.99;91.41;98995.63;5032463;28;20052;-62
2021/07/04 01:48:14;;;;;;;26.60;14.10;;;;;;;16.06;91.01;98996.13;5032681;28;20388;-61
2021/07/04 01:50:43;;;;;;;25.30;14.93;;;;;;;16.12;91.88;98994.97;5030750;28;20056;-62
2021/07/04 01:53:09;;;;;;;27.73;15.87;;;;;;;16.11;92.22;98998.78;5032940;28;20026;-62
2021/07/04 01:55:34;;;;;;;34.05;14.13;;;;;;;16.13;91.64;98993.09;5032316;28;20329;-62
2021/07/04 01:58:00;;;;;;;28.90;14.77;;;;;;;16.13;91.39;98993.91;5032456;28;20026;-62
2021/07/04 02:00:28;;;;;;;31.52;15.52;;;;;;;16.13;92.05;98985.00;5032188;28;20026;-62
2021/07/04 02:02:54;;;;;;;29.58;14.55;;;;;;;15.98;93.42;98987.84;5032336;28;20077;-61
2021/07/04 02:05:20;;;;;;;27.98;14.00;;;;;;;15.84;93.51;98984.97;5031852;28;20108;-61
2021/07/04 02:07:46;;;;;;;34.33;14.55;;;;;;;15.90;93.63;98981.13;5032647;28;20026;-61
2021/07/04 02:10:19;;;;;;;32.47;14.50;;;;;;;16.01;92.55;98971.84;5032013;28;20026;-62
2021/07/04 02:12:45;;;;;;;33.22;13.98;;;;;;;16.07;92.37;98976.09;5032280;28;20026;-62
2021/07/04 02:15:12;;;;;;;29.13;14.45;;;;;;;16.10;92.20;98986.38;5030665;28;20030;-62
2021/07/04 02:17:38;;;;;;;31.80;14.35;;;;;;;16.08;92.44;98976.94;5031069;28;20486;-62
2021/07/04 02:20:34;;;;;;;26.70;13.68;;;;;;;16.10;92.61;98983.66;5031983;28;20026;-62
2021/07/04 02:23:00;;;;;;;30.45;14.73;;;;;;;16.07;93.00;98989.63;5023828;28;20041;-62
2021/07/04 02:25:26;;;;;;;34.13;15.35;;;;;;;15.92;92.46;98987.84;5032604;28;20041;-61
2021/07/04 02:27:52;;;;;;;29.35;14.90;;;;;;;15.94;91.33;98982.97;5036145;28;20502;-62
2021/07/04 02:30:17;;;;;;;35.13;14.05;;;;;;;15.90;91.01;98981.13;5034237;28;20329;-62
2021/07/04 02:32:43;;;;;;;33.72;13.82;;;;;;;15.90;90.85;98991.91;5036260;28;20022;-62
2021/07/04 02:35:09;;;;;;;31.52;13.55;;;;;;;15.98;90.17;98988.63;5035288;28;20442;-62
2021/07/04 02:37:34;;;;;;;30.50;14.73;;;;;;;16.00;90.31;98991.88;5034662;28;20025;-62
2021/07/04 02:40:00;;;;;;;37.50;14.43;;;;;;;15.96;90.87;98988.09;5035829;28;20028;-62
2021/07/04 02:42:25;;;;;;;35.63;14.50;;;;;;;15.89;91.22;98979.50;5035532;28;20407;-62
2021/07/04 02:44:50;;;;;;;37.92;15.48;;;;;;;15.92;91.41;98981.63;5035754;28;20493;-62
2021/07/04 02:47:16;;;;;;;30.40;17.17;;;;;;;15.82;92.25;98981.72;5035296;28;20038;-61
2021/07/04 02:49:41;;;;;;;34.65;16.95;;;;;;;15.92;92.00;98978.94;5035569;28;20037;-61
2021/07/04 02:52:07;;;;;;;39.95;17.23;;;;;;;15.83;92.11;98980.66;5035193;28;20041;-61
2021/07/04 02:54:32;;;;;;;32.38;15.98;;;;;;;15.83;91.86;98977.97;5035501;28;20032;-62
2021/07/04 02:56:57;;;;;;;32.58;17.15;;;;;;;15.86;92.08;98980.09;5034855;28;20033;-61
2021/07/04 02:59:23;;;;;;;33.28;16.92;;;;;;;15.93;91.27;98967.06;5035298;28;20024;-61
2021/07/04 03:01:48;;;;;;;35.50;16.58;;;;;;;15.94;91.51;98965.94;5034992;28;20057;-61
2021/07/04 03:04:14;;;;;;;31.35;16.55;;;;;;;15.95;91.24;98973.00;5035575;28;20048;-61
2021/07/04 03:06:39;;;;;;;30.52;17.13;;;;;;;15.93;91.17;98973.25;5035008;28;20502;-62
2021/07/04 03:09:04;;;;;;;33.42;15.95;;;;;;;15.84;91.88;98974.94;5035384;28;20402;-62
2021/07/04 03:11:30;;;;;;;31.30;16.95;;;;;;;15.76;92.82;98974.75;5034854;28;20056;-61
2021/07/04 03:13:56;;;;;;;38.47;17.15;;;;;;;15.83;92.63;98964.44;5035043;28;20049;-62
2021/07/04 03:16:21;;;;;;;30.20;17.52;;;;;;;15.86;91.99;98974.69;5034717;28;20079;-62
2021/07/04 03:18:46;;;;;;;33.50;16.55;;;;;;;15.88;91.93;98975.22;5035026;28;20040;-62
2021/07/04 03:21:12;;;;;;;29.73;15.80;;;;;;;15.91;91.34;98971.94;5034818;28;20038;-61
2021/07/04 03:23:37;;;;;;;31.95;16.23;;;;;;;15.92;91.06;98978.94;5035139;28;20021;-61
2021/07/04 03:26:03;;;;;;;33.70;14.55;;;;;;;15.95;90.82;98978.41;5034597;28;20408;-62
2021/07/04 03:28:28;;;;;;;28.50;15.70;;;;;;;15.98;91.00;98975.13;5034973;28;20021;-62
2021/07/04 03:30:53;;;;;;;31.50;14.85;;;;;;;16.00;91.05;98986.47;5034384;28;20042;-62
2021/07/04 03:33:19;;;;;;;30.63;15.93;;;;;;;16.00;91.22;98975.66;5035037;28;20530;-62
2021/07/04 03:35:44;;;;;;;32.65;14.40;;;;;;;15.99;91.56;98974.00;5034459;28;20029;-61
2021/07/04 03:38:10;;;;;;;27.35;15.95;;;;;;;15.99;91.45;98973.22;5033092;28;20048;-61
2021/07/04 03:40:35;;;;;;;34.28;15.00;;;;;;;16.03;91.29;98972.38;5034443;28;20396;-61
2021/07/04 03:43:01;;;;;;;27.95;14.80;;;;;;;16.08;90.80;98972.31;5033400;28;20376;-61
2021/07/04 03:45:26;;;;;;;27.58;15.77;;;;;;;15.96;92.09;98974.59;5034210;28;20401;-62
2021/07/04 03:47:51;;;;;;;30.65;14.40;;;;;;;15.92;91.62;98968.94;5033607;28;20026;-61
2021/07/04 03:50:17;;;;;;;31.05;15.77;;;;;;;15.93;91.50;98969.75;5034093;28;20021;-62
2021/07/04 03:52:42;;;;;;;24.17;14.65;;;;;;;15.93;91.54;98967.84;5034790;28;20032;-61
2021/07/04 03:55:09;;;;;;;26.98;14.73;;;;;;;16.00;90.85;98964.84;5034114;28;20474;-62
2021/07/04 03:57:34;;;;;;;29.02;15.10;;;;;;;16.09;91.05;98979.31;5033192;28;20029;-62
2021/07/04 04:00:00;;;;;;;29.65;15.30;;;;;;;16.05;92.01;98975.59;5034426;28;20025;-61
2021/07/04 04:02:26;;;;;;;31.25;16.17;;;;;;;16.10;91.71;98975.56;5034173;28;20397;-62
2021/07/04 04:04:55;;;;;;;28.42;15.73;;;;;;;16.05;92.20;98972.91;5034324;28;20025;-62
2021/07/04 04:07:21;;;;;;;32.50;15.25;;;;;;;16.09;91.88;98975.81;5033865;28;20034;-62
2021/07/04 04:09:51;;;;;;;27.17;14.90;;;;;;;16.06;91.41;98979.91;5034218;28;20383;-61
2021/07/04 04:12:17;;;;;;;25.40;14.35;;;;;;;16.13;91.17;98980.38;5033719;28;20048;-61
2021/07/04 04:14:42;;;;;;;28.77;15.27;;;;;;;16.11;91.26;98977.16;5034050;28;20022;-62
2021/07/04 04:17:07;;;;;;;29.90;16.48;;;;;;;16.02;92.06;98984.25;5033674;28;20038;-61
2021/07/04 04:19:33;;;;;;;26.77;15.05;;;;;;;15.98;92.47;98983.22;5034102;28;20021;-61
2021/07/04 04:21:58;;;;;;;28.30;14.25;;;;;;;16.07;92.09;98986.91;5033570;28;20045;-61
2021/07/04 04:24:24;;;;;;;26.05;14.93;;;;;;;16.11;91.48;98987.16;5033972;28;20026;-61
2021/07/04 04:26:49;;;;;;;30.35;15.57;;;;;;;16.19;90.89;98983.84;5033392;28;20087;-62
2021/07/04 04:29:15;;;;;;;32.80;14.80;;;;;;;16.20;91.24;98993.56;5033656;28;20081;-61
2021/07/04 04:31:40;;;;;;;32.78;15.60;;;;;;;16.18;91.20;98987.63;5033012;28;20038;-61
2021/07/04 04:34:06;;;;;;;28.40;14.98;;;;;;;16.24;90.99;98991.09;5033682;28;20029;-61
2021/07/04 04:36:31;;;;;;;32.75;16.00;;;;;;;16.20;91.58;98990.88;5015660;28;20033;-61
2021/07/04 04:38:57;;;;;;;31.35;15.43;;;;;;;16.09;91.88;98995.53;5033661;28;20087;-61
2021/07/04 04:41:23;;;;;;;31.67;16.58;;;;;;;16.06;92.52;98998.81;5033092;28;20034;-61
2021/07/04 04:43:48;;;;;;;26.33;15.38;;;;;;;16.07;92.08;98996.91;5033539;28;20025;-61
2021/07/04 04:46:13;;;;;;;36.85;18.25;;;;;;;16.11;91.84;98993.38;5031816;28;20164;-61
2021/07/04 04:48:39;;;;;;;23.77;14.65;;;;;;;16.15;91.88;98988.22;5033572;28;20053;-62
2021/07/04 04:51:07;;;;;;;32.05;15.60;;;;;;;16.19;91.97;98989.25;5033108;28;20037;-61
2021/07/04 04:53:32;;;;;;;29.63;15.80;;;;;;;16.26;91.30;98983.50;5033436;28;20033;-62
2021/07/04 04:55:58;;;;;;;36.67;14.77;;;;;;;16.35;91.19;98981.81;5033052;28;20396;-61
2021/07/04 04:58:23;;;;;;;26.65;15.02;;;;;;;16.36;90.87;98975.28;5033343;28;20022;-61
2021/07/04 05:00:49;;;;;;;26.38;14.32;;;;;;;16.41;89.99;98975.22;5032954;28;20037;-61
2021/07/04 05:03:14;;;;;;;23.88;14.57;;;;;;;16.39;89.94;98975.50;5033091;28;20091;-62
2021/07/04 05:05:40;;;;;;;27.17;14.20;;;;;;;16.37;91.23;98972.31;5031638;28;20042;-61
2021/07/04 05:08:05;;;;;;;23.70;13.00;;;;;;;16.32;91.98;98971.53;5033120;28;20439;-61
2021/07/04 05:10:31;;;;;;;21.92;14.27;;;;;;;16.57;90.42;98968.56;5032722;28;20037;-61
2021/07/04 05:12:56;;;;;;;29.08;15.02;;;;;;;16.74;89.75;98975.41;5031776;28;20384;-61
2021/07/04 05:15:21;;;;;;;25.05;14.55;;;;;;;16.96;88.01;98975.69;5032840;28;20037;-61
2021/07/04 05:17:47;;;;;;;23.00;13.45;;;;;;;17.22;87.48;98978.06;5031902;28;20464;-61
2021/07/04 05:20:12;;;;;;;29.33;14.05;;;;;;;17.50;85.19;98972.78;5032777;28;20017;-62
2021/07/04 05:22:38;;;;;;;24.50;13.80;;;;;;;17.71;84.05;98968.66;5033070;28;20030;-61
2021/07/04 05:25:04;;;;;;;22.17;12.77;;;;;;;20.14;75.44;98964.22;5032631;28;20029;-62
2021/07/04 05:27:29;;;;;;;22.23;11.00;;;;;;;19.83;73.22;98951.41;5032941;28;20128;-62
2021/07/04 05:29:55;;;;;;;19.75;11.43;;;;;;;19.65;74.63;98946.94;5033154;28;20087;-62
2021/07/04 05:32:21;;;;;;;19.55;10.68;;;;;;;23.13;63.60;98952.53;5032357;28;20425;-62
2021/07/04 05:34:46;;;;;;;22.95;11.13;;;;;;;25.28;56.54;98951.63;5031563;28;20033;-62
2021/07/04 05:37:12;;;;;;;14.98;9.38;;;;;;;26.49;52.57;98956.88;5032606;28;20036;-60
2021/07/04 05:39:38;;;;;;;13.85;8.75;;;;;;;27.45;49.04;98951.97;5032807;28;20033;-61
2021/07/04 05:42:03;;;;;;;19.20;8.95;;;;;;;28.05;48.33;98957.09;5032358;28;20061;-62
2021/07/04 05:44:29;;;;;;;19.13;9.02;;;;;;;27.37;48.33;98964.00;5031494;28;20473;-60
2021/07/04 05:46:54;;;;;;;15.20;9.65;;;;;;;27.99;47.38;98959.34;5032389;28;20029;-62
2021/07/04 05:49:20;;;;;;;16.92;9.15;;;;;;;26.30;50.77;98960.31;5031781;28;20368;-60
2021/07/04 05:51:45;;;;;;;17.35;9.32;;;;;;;27.22;49.40;98952.69;5032356;28;20368;-60
2021/07/04 05:54:10;;;;;;;14.38;9.68;;;;;;;27.13;49.13;98952.06;5032849;28;20089;-61
2021/07/04 05:56:37;;;;;;;19.10;10.30;;;;;;;26.56;50.04;98950.75;5031036;28;20124;-61
2021/07/04 05:59:02;;;;;;;15.00;10.50;;;;;;;25.86;52.26;98945.81;5031672;28;20025;-61
2021/07/04 06:01:28;;;;;;;16.38;10.70;;;;;;;23.98;56.23;98938.44;5035881;28;20522;-61
2021/07/04 06:03:53;;;;;;;17.73;10.65;;;;;;;25.25;54.39;98944.09;5036637;28;20032;-61
2021/07/04 06:06:18;;;;;;;20.15;10.77;;;;;;;26.23;50.35;98943.63;5036287;28;20095;-61
2021/07/04 06:08:44;;;;;;;19.33;10.48;;;;;;;25.09;53.90;98939.28;5036542;28;20089;-61
2021/07/04 06:11:09;;;;;;;20.15;11.90;;;;;;;23.69;58.44;98931.16;5036031;28;20391;-62
2021/07/04 06:13:35;;;;;;;16.70;11.18;;;;;;;25.52;52.67;98937.03;5035531;28;20025;-62
2021/07/04 06:16:00;;;;;;;18.48;11.50;;;;;;;27.13;48.84;98938.31;5036104;28;20029;-61
2021/07/04 06:18:28;;;;;;;25.63;11.70;;;;;;;27.00;49.73;98942.34;5036557;28;20033;-61
2021/07/04 06:20:53;;;;;;;17.63;11.27;;;;;;;28.33;46.21;98949.34;5036053;28;20072;-61
2021/07/04 06:23:19;;;;;;;16.45;10.50;;;;;;;26.35;51.86;98954.53;5035058;28;20030;-60
2021/07/04 06:25:46;;;;;;;21.17;12.27;;;;;;;24.66;55.68;98948.94;5035802;28;20514;-60
2021/07/04 06:28:11;;;;;;;25.05;12.15;;;;;;;23.02;61.16;98943.94;5036200;28;20032;-60
2021/07/04 06:30:37;;;;;;;23.88;13.05;;;;;;;22.41;64.02;98938.75;5035667;28;20042;-62
2021/07/04 06:33:02;;;;;;;20.08;12.90;;;;;;;21.09;68.41;98941.97;5036207;28;20032;-62
2021/07/04 06:35:28;;;;;;;21.25;12.55;;;;;;;21.13;69.23;98934.75;5034047;28;20037;-62
2021/07/04 06:37:53;;;;;;;21.67;13.32;;;;;;;20.49;72.30;98929.78;5036004;28;20026;-62
2021/07/04 06:40:18;;;;;;;21.48;13.32;;;;;;;20.83;70.46;98936.47;5035550;28;20518;-62
2021/07/04 06:42:44;;;;;;;21.80;13.55;;;;;;;23.66;60.20;98937.28;5034122;28;20021;-62
2021/07/04 06:45:11;;;;;;;20.52;12.57;;;;;;;23.84;59.74;98932.50;5035556;28;20025;-62
2021/07/04 06:47:40;;;;;;;19.65;12.95;;;;;;;24.15;57.94;98934.72;5035731;28;20025;-62
2021/07/04 06:50:06;;;;;;;21.63;12.98;;;;;;;25.49;52.99;98932.25;5035513;28;20108;-62
2021/07/04 06:52:31;;;;;;;24.73;12.25;;;;;;;25.82;51.76;98924.53;5035749;28;20025;-62
2021/07/04 06:54:57;;;;;;;18.00;11.93;;;;;;;26.83;50.52;98927.84;5035693;28;20432;-62
2021/07/04 06:57:28;;;;;;;17.92;10.95;;;;;;;28.75;46.49;98928.34;5035327;28;20038;-62
2021/07/04 06:59:59;;;;;;;23.42;11.30;;;;;;;28.20;45.79;98925.09;5035647;28;20022;-62
2021/07/04 07:02:25;;;;;;;22.35;11.00;;;;;;;27.37;48.68;98928.22;5035241;28;20132;-60
2021/07/04 07:04:51;;;;;;;18.83;11.50;;;;;;;26.58;50.86;98934.72;5033868;28;20037;-62
2021/07/04 07:07:17;;;;;;;19.83;11.40;;;;;;;26.69;50.59;98933.03;5033687;28;20060;-62
2021/07/04 07:09:43;;;;;;;22.08;11.07;;;;;;;25.97;52.94;98931.22;5035677;28;20100;-62
2021/07/04 07:12:08;;;;;;;18.55;10.75;;;;;;;26.58;51.60;98929.22;5033721;28;20562;-63
2021/07/04 07:14:33;;;;;;;15.40;11.23;;;;;;;25.70;53.75;98934.78;5034115;28;20029;-62
2021/07/04 07:16:59;;;;;;;19.55;11.48;;;;;;;24.45;56.86;98926.31;5034883;28;20040;-62
2021/07/04 07:19:24;;;;;;;17.55;11.15;;;;;;;25.63;55.02;98926.34;5035183;28;20029;-62
2021/07/04 07:21:50;;;;;;;23.13;11.32;;;;;;;25.96;54.90;98934.31;5034797;28;20399;-62
2021/07/04 07:24:15;;;;;;;19.45;12.00;;;;;;;25.72;55.72;98924.25;5035331;28;20357;-62
2021/07/04 07:26:40;;;;;;;23.10;11.85;;;;;;;25.47;56.25;98920.81;5034668;28;20447;-62
2021/07/04 07:29:06;;;;;;;18.42;12.07;;;;;;;25.18;55.00;98915.28;5035187;28;20045;-62
2021/07/04 07:31:35;;;;;;;23.85;12.68;;;;;;;24.05;58.00;98910.53;5034759;28;20038;-63
2021/07/04 07:34:01;;;;;;;21.80;11.80;;;;;;;25.82;53.44;98907.25;5035066;28;20025;-62
2021/07/04 07:36:26;;;;;;;17.30;11.93;;;;;;;25.57;54.04;98903.84;5016870;28;20042;-63
2021/07/04 07:38:51;;;;;;;14.98;10.13;;;;;;;25.44;56.00;98902.31;5034913;28;20433;-62
2021/07/04 07:41:18;;;;;;;21.58;11.43;;;;;;;26.13;52.46;98900.22;5034675;28;20046;-62
2021/07/04 07:43:44;;;;;;;18.10;9.27;;;;;;;28.39;45.37;98901.00;5034960;28;20026;-62
2021/07/04 07:46:09;;;;;;;13.73;9.60;;;;;;;30.74;40.68;98906.84;5034433;28;20395;-62
2021/07/04 07:48:35;;;;;;;13.18;9.63;;;;;;;28.75;43.81;98896.03;5034688;28;20021;-62
2021/07/04 07:51:00;;;;;;;16.35;9.35;;;;;;;26.76;48.91;98894.72;5034005;28;20037;-62
2021/07/04 07:53:25;;;;;;;17.52;9.82;;;;;;;27.26;47.81;98890.31;5034609;28;20022;-62
2021/07/04 07:55:51;;;;;;;17.48;9.02;;;;;;;27.91;47.58;98891.56;5034046;28;20037;-62
2021/07/04 07:58:16;;;;;;;19.23;10.82;;;;;;;25.40;54.06;98891.22;5034471;28;20048;-62
2021/07/04 08:00:43;;;;;;;16.65;10.13;;;;;;;26.06;52.02;98884.38;5034196;28;20034;-62
2021/07/04 08:03:12;;;;;;;15.57;10.32;;;;;;;24.84;54.28;98885.69;5034264;28;20385;-62
2021/07/04 08:05:38;;;;;;;15.93;10.38;;;;;;;24.21;57.18;98875.88;5032659;28;20045;-62
2021/07/04 08:08:03;;;;;;;16.70;9.90;;;;;;;23.33;59.75;98879.84;5034523;28;20021;-62
2021/07/04 08:10:29;;;;;;;12.10;9.15;;;;;;;24.00;57.63;98883.38;5032694;28;20029;-62
2021/07/04 08:12:55;;;;;;;14.82;8.73;;;;;;;24.16;58.25;98875.28;5032824;28;20395;-62
2021/07/04 08:15:21;;;;;;;19.85;10.20;;;;;;;23.74;59.58;98879.00;5033691;28;20530;-62
2021/07/04 08:17:46;;;;;;;15.13;8.90;;;;;;;22.35;63.88;98869.91;5034146;28;20034;-62
2021/07/04 08:20:12;;;;;;;14.65;9.55;;;;;;;23.82;59.84;98869.88;5032359;28;20022;-62
2021/07/04 08:22:38;;;;;;;14.68;8.65;;;;;;;24.83;55.84;98862.13;5033898;28;20033;-62
2021/07/04 08:25:05;;;;;;;14.27;8.50;;;;;;;26.80;49.84;98851.59;5033797;28;20025;-62
2021/07/04 08:27:30;;;;;;;15.73;8.18;;;;;;;27.27;48.34;98858.88;5032621;28;20391;-62
2021/07/04 08:29:56;;;;;;;13.15;8.20;;;;;;;28.95;44.69;98849.03;5033900;28;20021;-62
2021/07/04 08:32:21;;;;;;;12.25;7.63;;;;;;;26.31;49.25;98846.53;5032834;28;20038;-62
2021/07/04 08:34:46;;;;;;;11.75;7.65;;;;;;;26.44;49.60;98839.78;5033590;28;20026;-62
2021/07/04 08:37:12;;;;;;;9.80;7.22;;;;;;;28.63;43.30;98838.41;5033169;28;20052;-62
2021/07/04 08:39:37;;;;;;;11.63;6.80;;;;;;;30.55;39.45;98835.22;5033726;28;20033;-62
2021/07/04 08:42:03;;;;;;;14.23;6.03;;;;;;;29.12;41.46;98836.66;5031742;28;20409;-62
2021/07/04 08:44:28;;;;;;;11.35;6.35;;;;;;;27.87;44.13;98835.59;5033465;28;20033;-62
2021/07/04 08:46:54;;;;;;;9.82;5.93;;;;;;;24.71;51.12;98825.41;5031779;28;20034;-62
2021/07/04 08:49:19;;;;;;;9.13;6.10;;;;;;;24.27;50.02;98819.72;5033314;28;20033;-62
2021/07/04 08:51:45;;;;;;;10.75;5.25;;;;;;;28.18;41.27;98813.31;5032883;28;20179;-62
2021/07/04 08:54:10;;;;;;;10.65;5.32;;;;;;;25.68;45.31;98821.81;5033277;28;20029;-62
2021/07/04 08:56:36;;;;;;;12.75;5.43;;;;;;;27.93;43.71;98806.59;5032924;28;20036;-62
2021/07/04 08:59:01;;;;;;;9.15;6.38;;;;;;;28.16;42.21;98815.63;5033326;28;20063;-63
2021/07/04 09:01:28;;;;;;;9.75;5.32;;;;;;;26.44;44.75;98811.50;5032556;28;20041;-62
2021/07/04 09:04:05;;;;;;;8.77;5.80;;;;;;;24.84;47.05;98807.00;5033113;28;20033;-62
2021/07/04 09:06:48;;;;;;;12.10;5.63;;;;;;;24.88;48.74;98805.13;5031570;28;20042;-62
2021/07/04 09:09:20;;;;;;;10.70;5.75;;;;;;;26.22;44.63;98797.28;5032017;28;20472;-62
2021/07/04 09:11:54;;;;;;;10.98;6.00;;;;;;;24.04;49.95;98802.19;5032623;28;20048;-62
2021/07/04 09:14:36;;;;;;;15.30;6.70;;;;;;;22.86;54.56;98796.13;5031650;28;20435;-62
2021/07/04 09:17:03;;;;;;;11.20;5.88;;;;;;;23.89;52.61;98795.44;5031227;28;20037;-62
2021/07/04 09:19:28;;;;;;;10.80;5.78;;;;;;;25.47;49.42;98798.16;5032907;28;20456;-62
2021/07/04 09:22:03;;;;;;;9.85;5.65;;;;;;;25.12;49.42;98798.75;5031241;28;20045;-62
2021/07/04 09:24:35;;;;;;;13.05;5.82;;;;;;;24.82;50.70;98801.06;5032903;28;20021;-62
2021/07/04 09:27:01;;;;;;;8.85;5.88;;;;;;;25.35;49.83;98798.22;5032397;28;20033;-62
2021/07/04 09:29:47;;;;;;;10.15;6.30;;;;;;;24.50;52.88;98787.19;5031524;28;20029;-62
2021/07/04 09:32:20;;;;;;;15.65;6.40;;;;;;;24.27;51.12;98781.41;5032340;28;20068;-62
2021/07/04 09:35:15;;;;;;;7.63;5.25;;;;;;;24.54;52.85;98787.31;5032201;28;20041;-62
2021/07/04 09:37:44;;;;;;;11.68;6.07;;;;;;;24.52;52.61;98781.38;5032687;28;20498;-62
2021/07/04 09:40:26;;;;;;;10.98;5.97;;;;;;;24.12;55.59;98784.84;5032212;28;20462;-62
2021/07/04 09:42:55;;;;;;;13.05;6.22;;;;;;;23.59;58.63;98779.19;5032893;28;20068;-62
2021/07/04 09:45:24;;;;;;;10.48;5.90;;;;;;;23.19;60.38;98779.00;5032549;28;20032;-62
2021/07/04 09:47:53;;;;;;;8.93;6.20;;;;;;;22.86;63.65;98796.13;5014915;28;20172;-62
2021/07/04 09:50:19;;;;;;;;;;;;;;;22.08;63.71;98794.69;5014925;28;20022;-62
2021/07/04 09:53:01;;;;;;;17.10;6.43;;;;;;;21.43;68.22;98785.03;5031429;28;19920;-62
2021/07/04 09:55:27;;;;;;;10.90;6.80;;;;;;;21.44;69.57;98783.88;5032159;28;20104;-62
2021/07/04 09:57:57;;;;;;;9.07;6.55;;;;;;;21.24;69.03;98783.44;5032714;28;20388;-62
2021/07/04 10:00:24;;;;;;;15.38;6.68;;;;;;;20.92;68.87;98775.78;5032115;28;20056;-62
2021/07/04 10:03:03;;;;;;;11.80;6.38;;;;;;;21.06;68.48;98776.41;5032495;28;20045;-62
2021/07/04 10:05:29;;;;;;;15.07;7.28;;;;;;;20.68;70.67;98772.44;5032174;28;20204;-62
2021/07/04 10:07:54;;;;;;;16.42;6.72;;;;;;;20.71;70.91;98786.53;5032605;28;20387;-62
2021/07/04 10:10:20;;;;;;;12.48;7.35;;;;;;;20.55;71.72;98788.94;5030791;28;25418;-62
2021/07/04 10:12:45;;;;;;;11.40;7.05;;;;;;;20.17;74.81;98801.16;5032286;28;20108;-62
2021/07/04 10:15:11;;;;;;;14.02;6.90;;;;;;;19.82;77.25;98808.41;5031997;28;20033;-61
2021/07/04 10:17:37;;;;;;;13.40;7.60;;;;;;;19.68;79.78;98824.00;5032229;28;20033;-62
2021/07/04 10:20:03;;;;;;;18.85;7.68;;;;;;;19.64;78.49;98818.34;5014309;28;20028;-62
2021/07/04 10:22:32;;;;;;;12.80;6.72;;;;;;;19.43;79.15;98815.38;5032335;28;20022;-62
2021/07/04 10:24:58;;;;;;;13.60;7.47;;;;;;;19.53;79.51;98812.38;5032341;28;20025;-63
2021/07/04 10:27:23;;;;;;;23.00;8.00;;;;;;;19.40;80.61;98789.63;5031279;28;20033;-63
2021/07/04 10:29:48;;;;;;;18.92;7.18;;;;;;;19.40;80.32;98777.94;5031016;28;20033;-63
2021/07/04 10:32:14;;;;;;;13.95;7.68;;;;;;;19.63;80.14;98772.47;5014147;28;20042;-63
2021/07/04 10:34:48;;;;;;;11.63;7.55;;;;;;;19.67;80.34;98759.81;5032376;28;20025;-63
2021/07/04 10:37:15;;;;;;;25.02;8.50;;;;;;;19.95;79.47;98761.25;5032028;28;20037;-62
2021/07/04 10:39:40;;;;;;;20.92;8.00;;;;;;;19.90;81.33;98769.56;5032298;28;20053;-62
2021/07/04 10:42:07;;;;;;;20.65;8.93;;;;;;;20.10;80.57;98778.25;5031957;28;20491;-62
2021/07/04 10:44:37;;;;;;;20.95;8.18;;;;;;;19.74;81.78;98771.09;5032390;28;20034;-62
2021/07/04 10:47:04;;;;;;;19.02;7.88;;;;;;;20.20;80.57;98775.25;5034615;28;20061;-62
2021/07/04 10:49:38;;;;;;;12.95;7.90;;;;;;;20.34;77.31;98772.38;5035976;28;20082;-62
2021/07/04 10:52:09;;;;;;;13.90;8.50;;;;;;;20.47;78.13;98769.50;5035433;28;20037;-62
2021/07/04 10:54:43;;;;;;;14.88;7.43;;;;;;;20.59;75.20;98763.47;5035737;28;20037;-63
2021/07/04 10:57:11;;;;;;;13.30;6.88;;;;;;;19.98;75.44;98771.50;5035358;28;20049;-62
2021/07/04 11:00:11;;;;;;;14.95;7.65;;;;;;;19.97;77.15;98761.75;5035097;28;20116;-62
2021/07/04 11:02:37;;;;;;;19.38;8.77;;;;;;;20.28;77.24;98763.56;5035122;28;20069;-62
2021/07/04 11:05:05;;;;;;;11.20;6.28;;;;;;;20.08;76.74;98770.41;5035135;28;20111;-62
2021/07/04 11:08:06;;;;;;;12.07;6.72;;;;;;;20.52;73.01;98765.00;5035366;28;20022;-62
2021/07/04 11:10:33;;;;;;;14.30;7.13;;;;;;;20.67;74.94;98767.31;5013146;28;20456;-62
2021/07/04 11:13:07;;;;;;;12.07;6.53;;;;;;;20.28;72.56;98769.00;5035329;28;20029;-62
2021/07/04 11:15:33;;;;;;;10.50;5.97;;;;;;;19.67;74.51;98770.69;5035158;28;20072;-62
2021/07/04 11:18:05;;;;;;;11.85;6.30;;;;;;;20.70;72.93;98769.41;5035481;28;20021;-62